sensor_id;sensor_type;location;lat;lon;timestamp;pressure;altitude;pressure_sealevel;temperature;humidity
38558;BME280;24333;42.626;23.308;2022-08-19T00:02:35;92077.13;;;21.69;64.55
38558;BME280;24333;42.626;23.308;2022-08-19T00:05:02;92079.34;;;21.74;65.47
38558;BME280;24333;42.626;23.308;2022-08-19T00:07:29;92083.69;;;21.75;64.63
38558;BME280;24333;42.626;23.308;2022-08-19T00:09:55;92084.44;;;21.75;65.66
38558;BME280;24333;42.626;23.308;2022-08-19T00:12:21;92094.19;;;21.80;64.36
38558;BME280;24333;42.626;23.308;2022-08-19T00:14:48;92093.41;;;21.79;65.42
38558;BME280;24333;42.626;23.308;2022-08-19T00:32:45;92099.16;;;21.50;67.33
38558;BME280;24333;42.626;23.308;2022-08-19T00:35:11;92102.25;;;21.52;67.84
38558;BME280;24333;42.626;23.308;2022-08-19T00:37:37;92099.16;;;21.50;67.69
38558;BME280;24333;42.626;23.308;2022-08-19T00:40:05;92094.16;;;21.45;68.93
38558;BME280;24333;42.626;23.308;2022-08-19T00:42:31;92095.94;;;21.38;70.13
38558;BME280;24333;42.626;23.308;2022-08-19T01:08:16;92086.72;;;20.93;72.60
38558;BME280;24333;42.626;23.308;2022-08-19T01:13:21;92072.06;;;20.80;72.14
38558;BME280;24333;42.626;23.308;2022-08-19T01:16:09;92092.91;;;20.98;70.79
38558;BME280;24333;42.626;23.308;2022-08-19T01:18:41;92079.28;;;20.90;72.22
38558;BME280;24333;42.626;23.308;2022-08-19T01:22:01;92056.78;;;20.75;72.20
38558;BME280;24333;42.626;23.308;2022-08-19T01:24:21;92068.75;;;20.85;71.98
38558;BME280;24333;42.626;23.308;2022-08-19T06:29:45;92160.91;;;23.42;69.05
38558;BME280;24333;42.626;23.308;2022-08-19T06:32:15;92135.72;;;23.36;68.71
38558;BME280;24333;42.626;23.308;2022-08-19T06:34:42;92157.25;;;23.63;68.66
38558;BME280;24333;42.626;23.308;2022-08-19T07:23:41;92172.84;;;24.39;64.56
38558;BME280;24333;42.626;23.308;2022-08-19T07:31:20;92170.03;;;24.58;63.40
38558;BME280;24333;42.626;23.308;2022-08-19T07:33:47;92174.22;;;24.53;62.18
38558;BME280;24333;42.626;23.308;2022-08-19T07:38:50;92181.50;;;24.60;62.31
38558;BME280;24333;42.626;23.308;2022-08-19T07:41:20;92188.41;;;24.74;62.15
38558;BME280;24333;42.626;23.308;2022-08-19T07:43:47;92179.31;;;24.82;61.03
38558;BME280;24333;42.626;23.308;2022-08-19T07:48:57;92170.63;;;24.80;60.28
38558;BME280;24333;42.626;23.308;2022-08-19T07:54:25;92185.13;;;25.12;60.26
38558;BME280;24333;42.626;23.308;2022-08-19T07:56:52;92185.53;;;25.30;58.88
38558;BME280;24333;42.626;23.308;2022-08-19T07:59:19;92186.88;;;25.44;57.85
38558;BME280;24333;42.626;23.308;2022-08-19T08:28:53;92184.78;;;26.84;50.81
38558;BME280;24333;42.626;23.308;2022-08-19T08:55:27;92174.22;;;27.54;44.57
38558;BME280;24333;42.626;23.308;2022-08-19T08:58:44;92174.69;;;27.68;43.91
38558;BME280;24333;42.626;23.308;2022-08-19T09:04:06;92177.94;;;27.81;43.19
38558;BME280;24333;42.626;23.308;2022-08-19T09:09:42;92165.38;;;28.12;44.23
38558;BME280;24333;42.626;23.308;2022-08-19T09:15:00;92167.63;;;28.50;41.30
38558;BME280;24333;42.626;23.308;2022-08-19T09:17:28;92168.53;;;28.62;42.03
38558;BME280;24333;42.626;23.308;2022-08-19T09:20:25;92168.09;;;28.69;41.57
38558;BME280;24333;42.626;23.308;2022-08-19T09:22:50;92161.78;;;28.74;40.47
38558;BME280;24333;42.626;23.308;2022-08-19T09:25:18;92161.78;;;28.74;39.82
38558;BME280;24333;42.626;23.308;2022-08-19T09:27:47;92159.81;;;28.80;41.39
38558;BME280;24333;42.626;23.308;2022-08-19T09:30:28;92161.75;;;28.95;40.78
38558;BME280;24333;42.626;23.308;2022-08-19T09:32:54;92154.22;;;29.07;39.29
38558;BME280;24333;42.626;23.308;2022-08-19T09:35:22;92145.72;;;29.27;38.58
38558;BME280;24333;42.626;23.308;2022-08-19T09:37:49;92149.63;;;29.36;38.15
38558;BME280;24333;42.626;23.308;2022-08-19T09:40:15;92156.09;;;29.48;38.16
38558;BME280;24333;42.626;23.308;2022-08-19T09:42:42;92147.94;;;29.50;37.79
38558;BME280;24333;42.626;23.308;2022-08-19T09:45:19;92148.78;;;29.56;36.81
38558;BME280;24333;42.626;23.308;2022-08-19T09:47:46;92148.84;;;29.67;38.14
38558;BME280;24333;42.626;23.308;2022-08-19T09:50:13;92149.16;;;29.81;36.61
38558;BME280;24333;42.626;23.308;2022-08-19T09:52:39;92155.09;;;29.89;37.74
38558;BME280;24333;42.626;23.308;2022-08-19T09:55:07;92150.63;;;30.03;37.16
38558;BME280;24333;42.626;23.308;2022-08-19T09:57:33;92156.50;;;30.05;34.38
38558;BME280;24333;42.626;23.308;2022-08-19T09:59:59;92143.19;;;30.05;34.89
38558;BME280;24333;42.626;23.308;2022-08-19T10:02:24;92141.22;;;30.17;33.35
38558;BME280;24333;42.626;23.308;2022-08-19T10:04:50;92144.63;;;30.38;33.57
38558;BME280;24333;42.626;23.308;2022-08-19T10:07:34;92141.75;;;30.82;32.07
38558;BME280;24333;42.626;23.308;2022-08-19T10:10:00;92128.97;;;30.98;31.79
38558;BME280;24333;42.626;23.308;2022-08-19T10:12:25;92131.28;;;31.05;30.81
38558;BME280;24333;42.626;23.308;2022-08-19T10:14:51;92130.50;;;31.10;31.62
38558;BME280;24333;42.626;23.308;2022-08-19T10:17:18;92128.25;;;31.37;30.98
38558;BME280;24333;42.626;23.308;2022-08-19T10:19:44;92137.94;;;31.59;30.98
38558;BME280;24333;42.626;23.308;2022-08-19T10:22:09;92134.09;;;31.62;30.79
38558;BME280;24333;42.626;23.308;2022-08-19T10:24:39;92128.25;;;31.49;31.16
38558;BME280;24333;42.626;23.308;2022-08-19T10:27:05;92124.13;;;31.61;29.91
38558;BME280;24333;42.626;23.308;2022-08-19T10:29:31;92127.97;;;31.69;31.27
38558;BME280;24333;42.626;23.308;2022-08-19T10:32:00;92124.88;;;31.73;31.01
38558;BME280;24333;42.626;23.308;2022-08-19T10:34:27;92128.72;;;31.93;30.36
38558;BME280;24333;42.626;23.308;2022-08-19T10:36:53;92117.66;;;32.12;31.01
38558;BME280;24333;42.626;23.308;2022-08-19T10:39:18;92108.03;;;32.49;30.94
38558;BME280;24333;42.626;23.308;2022-08-19T10:41:44;92109.56;;;32.50;31.19
38558;BME280;24333;42.626;23.308;2022-08-19T10:44:12;92113.63;;;32.61;30.03
38558;BME280;24333;42.626;23.308;2022-08-19T10:46:40;92104.78;;;32.81;31.36
38558;BME280;24333;42.626;23.308;2022-08-19T11:04:38;92117.38;;;32.80;29.20
38558;BME280;24333;42.626;23.308;2022-08-19T11:07:05;92115.03;;;32.84;28.27
38558;BME280;24333;42.626;23.308;2022-08-19T11:09:31;92099.69;;;33.16;27.57
38558;BME280;24333;42.626;23.308;2022-08-19T11:12:01;92101.06;;;33.70;28.35
38558;BME280;24333;42.626;23.308;2022-08-19T11:14:26;92104.03;;;34.09;27.70
38558;BME280;24333;42.626;23.308;2022-08-19T11:16:56;92106.16;;;34.71;27.37
38558;BME280;24333;42.626;23.308;2022-08-19T11:19:22;92115.19;;;35.41;27.04
38558;BME280;24333;42.626;23.308;2022-08-19T11:21:49;92110.38;;;35.55;26.75
38558;BME280;24333;42.626;23.308;2022-08-19T11:24:20;92106.75;;;35.22;27.00
38558;BME280;24333;42.626;23.308;2022-08-19T11:26:48;92106.78;;;35.35;26.63
38558;BME280;24333;42.626;23.308;2022-08-19T11:29:16;92105.47;;;35.36;26.29
38558;BME280;24333;42.626;23.308;2022-08-19T11:31:44;92100.50;;;35.88;26.25
38558;BME280;24333;42.626;23.308;2022-08-19T11:34:12;92100.25;;;34.88;26.27
38558;BME280;24333;42.626;23.308;2022-08-19T11:36:40;92094.47;;;34.37;28.05
38558;BME280;24333;42.626;23.308;2022-08-19T11:39:08;92092.88;;;33.67;29.28
38558;BME280;24333;42.626;23.308;2022-08-19T11:41:35;92087.22;;;33.06;29.84
38558;BME280;24333;42.626;23.308;2022-08-19T11:44:00;92086.69;;;32.59;30.20
38558;BME280;24333;42.626;23.308;2022-08-19T11:46:28;92095.06;;;32.17;32.18
38558;BME280;24333;42.626;23.308;2022-08-19T11:48:57;92082.44;;;31.48;31.04
38558;BME280;24333;42.626;23.308;2022-08-19T11:51:25;92084.47;;;31.36;31.70
38558;BME280;24333;42.626;23.308;2022-08-19T11:53:52;92083.72;;;31.41;32.26
38558;BME280;24333;42.626;23.308;2022-08-19T11:56:18;92084.22;;;31.46;33.52
38558;BME280;24333;42.626;23.308;2022-08-19T11:58:47;92093.69;;;31.42;32.46
38558;BME280;24333;42.626;23.308;2022-08-19T12:01:20;92079.09;;;31.15;31.76
38558;BME280;24333;42.626;23.308;2022-08-19T12:03:48;92084.97;;;31.00;31.82
38558;BME280;24333;42.626;23.308;2022-08-19T12:06:21;92067.56;;;30.96;32.30
38558;BME280;24333;42.626;23.308;2022-08-19T12:08:49;92071.94;;;31.03;33.15
38558;BME280;24333;42.626;23.308;2022-08-19T12:11:14;92061.94;;;30.79;33.61
38558;BME280;24333;42.626;23.308;2022-08-19T12:13:40;92050.91;;;30.64;33.95
38558;BME280;24333;42.626;23.308;2022-08-19T12:16:11;92064.66;;;30.56;33.64
38558;BME280;24333;42.626;23.308;2022-08-19T12:18:38;92065.53;;;30.80;37.15
38558;BME280;24333;42.626;23.308;2022-08-19T12:21:04;92056.06;;;30.94;34.72
38558;BME280;24333;42.626;23.308;2022-08-19T12:23:29;92052.72;;;31.01;33.33
38558;BME280;24333;42.626;23.308;2022-08-19T12:25:56;92049.16;;;31.12;32.02
38558;BME280;24333;42.626;23.308;2022-08-19T12:28:23;92044.53;;;31.04;32.39
38558;BME280;24333;42.626;23.308;2022-08-19T12:30:50;92045.06;;;30.96;32.99
38558;BME280;24333;42.626;23.308;2022-08-19T12:33:17;92038.94;;;30.98;34.00
38558;BME280;24333;42.626;23.308;2022-08-19T12:35:43;92039.94;;;30.89;32.40
38558;BME280;24333;42.626;23.308;2022-08-19T12:38:11;92037.91;;;30.95;32.33
38558;BME280;24333;42.626;23.308;2022-08-19T12:40:37;92042.50;;;31.04;33.31
38558;BME280;24333;42.626;23.308;2022-08-19T12:43:06;92044.03;;;31.05;32.74
38558;BME280;24333;42.626;23.308;2022-08-19T12:45:32;92024.31;;;30.94;32.49
38558;BME280;24333;42.626;23.308;2022-08-19T13:02:23;92019.22;;;30.98;33.88
38558;BME280;24333;42.626;23.308;2022-08-19T13:04:48;92006.44;;;30.85;33.46
38558;BME280;24333;42.626;23.308;2022-08-19T13:07:13;92016.66;;;31.00;37.01
38558;BME280;24333;42.626;23.308;2022-08-19T13:09:39;92018.19;;;30.90;33.51
38558;BME280;24333;42.626;23.308;2022-08-19T13:12:07;92009.50;;;30.87;37.29
38558;BME280;24333;42.626;23.308;2022-08-19T13:14:38;92010.00;;;30.97;34.15
38558;BME280;24333;42.626;23.308;2022-08-19T13:17:05;92007.97;;;30.86;37.09
38558;BME280;24333;42.626;23.308;2022-08-19T13:19:30;91997.97;;;30.85;33.73
38558;BME280;24333;42.626;23.308;2022-08-19T13:21:56;92010.03;;;30.86;36.29
38558;BME280;24333;42.626;23.308;2022-08-19T13:24:23;91998.25;;;30.76;36.33
38558;BME280;24333;42.626;23.308;2022-08-19T13:26:48;91994.16;;;30.77;34.31
38558;BME280;24333;42.626;23.308;2022-08-19T13:29:13;91997.72;;;30.66;33.81
38558;BME280;24333;42.626;23.308;2022-08-19T13:31:57;91996.19;;;30.60;33.68
38558;BME280;24333;42.626;23.308;2022-08-19T13:34:42;91993.09;;;30.57;32.91
38558;BME280;24333;42.626;23.308;2022-08-19T13:37:07;91997.16;;;30.39;32.77
38558;BME280;24333;42.626;23.308;2022-08-19T13:39:33;91993.06;;;30.40;32.80
38558;BME280;24333;42.626;23.308;2022-08-19T13:41:59;91984.16;;;30.48;32.92
38558;BME280;24333;42.626;23.308;2022-08-19T13:44:26;91990.28;;;30.52;33.05
38558;BME280;24333;42.626;23.308;2022-08-19T13:46:55;91970.84;;;30.54;33.01
38558;BME280;24333;42.626;23.308;2022-08-19T13:49:20;91986.22;;;30.70;32.50
38558;BME280;24333;42.626;23.308;2022-08-19T13:51:46;91971.66;;;30.66;32.27
38558;BME280;24333;42.626;23.308;2022-08-19T13:54:12;91986.75;;;30.80;33.38
38558;BME280;24333;42.626;23.308;2022-08-19T13:56:44;91981.63;;;30.84;33.62
38558;BME280;24333;42.626;23.308;2022-08-19T13:59:11;91984.69;;;30.92;35.46
38558;BME280;24333;42.626;23.308;2022-08-19T14:01:37;91980.31;;;30.91;32.66
38558;BME280;24333;42.626;23.308;2022-08-19T14:04:04;91978.81;;;30.84;32.79
38558;BME280;24333;42.626;23.308;2022-08-19T14:06:30;91972.16;;;30.81;32.17
38558;BME280;24333;42.626;23.308;2022-08-19T14:08:55;91975.47;;;30.91;35.47
38558;BME280;24333;42.626;23.308;2022-08-19T14:11:21;91974.72;;;30.96;33.23
38558;BME280;24333;42.626;23.308;2022-08-19T14:13:48;91966.78;;;30.95;32.50
38558;BME280;24333;42.626;23.308;2022-08-19T14:16:14;91972.41;;;31.00;33.37
38558;BME280;24333;42.626;23.308;2022-08-19T14:18:40;91973.44;;;30.86;34.11
38558;BME280;24333;42.626;23.308;2022-08-19T14:21:34;91969.09;;;30.68;32.57
38558;BME280;24333;42.626;23.308;2022-08-19T14:24:01;91970.13;;;30.65;32.89
38558;BME280;24333;42.626;23.308;2022-08-19T14:26:26;91962.44;;;30.60;32.58
38558;BME280;24333;42.626;23.308;2022-08-19T14:28:52;91954.78;;;30.66;33.19
38558;BME280;24333;42.626;23.308;2022-08-19T14:31:18;91972.94;;;30.82;34.55
38558;BME280;24333;42.626;23.308;2022-08-19T14:37:05;91951.72;;;30.81;35.17
38558;BME280;24333;42.626;23.308;2022-08-19T14:39:31;91961.19;;;30.78;33.38
38558;BME280;24333;42.626;23.308;2022-08-19T14:41:56;91942.00;;;30.76;34.92
38558;BME280;24333;42.626;23.308;2022-08-19T14:44:22;91952.22;;;30.79;36.12
38558;BME280;24333;42.626;23.308;2022-08-19T14:46:47;91951.69;;;30.86;36.55
38558;BME280;24333;42.626;23.308;2022-08-19T14:49:13;91947.88;;;30.84;35.21
38558;BME280;24333;42.626;23.308;2022-08-19T14:51:38;91939.94;;;30.82;35.30
38558;BME280;24333;42.626;23.308;2022-08-19T14:54:04;91935.09;;;30.83;34.80
38558;BME280;24333;42.626;23.308;2022-08-19T14:56:29;91937.13;;;30.82;34.68
38558;BME280;24333;42.626;23.308;2022-08-19T14:58:56;91943.00;;;30.84;34.87
38558;BME280;24333;42.626;23.308;2022-08-19T15:01:25;91945.56;;;30.82;34.68
38558;BME280;24333;42.626;23.308;2022-08-19T15:03:51;91940.72;;;30.83;34.30
38558;BME280;24333;42.626;23.308;2022-08-19T15:06:19;91947.88;;;30.78;34.54
38558;BME280;24333;42.626;23.308;2022-08-19T15:08:45;91941.47;;;30.72;34.87
38558;BME280;24333;42.626;23.308;2022-08-19T15:11:13;91952.47;;;30.70;35.34
38558;BME280;24333;42.626;23.308;2022-08-19T15:13:40;91940.47;;;30.64;35.03
38558;BME280;24333;42.626;23.308;2022-08-19T15:16:06;91936.84;;;30.57;34.78
38558;BME280;24333;42.626;23.308;2022-08-19T15:18:32;91935.88;;;30.61;35.38
38558;BME280;24333;42.626;23.308;2022-08-19T15:36:24;91922.78;;;30.29;38.71
38558;BME280;24333;42.626;23.308;2022-08-19T15:38:51;91919.69;;;30.21;39.37
38558;BME280;24333;42.626;23.308;2022-08-19T15:41:22;91930.94;;;30.15;39.77
38558;BME280;24333;42.626;23.308;2022-08-19T15:43:59;91927.63;;;30.06;41.40
38558;BME280;24333;42.626;23.308;2022-08-19T15:46:27;91932.13;;;29.86;42.80
38558;BME280;24333;42.626;23.308;2022-08-19T15:48:54;91934.91;;;29.75;42.47
38558;BME280;24333;42.626;23.308;2022-08-19T15:51:21;91929.50;;;29.54;41.96
38558;BME280;24333;42.626;23.308;2022-08-19T15:53:46;91920.53;;;29.44;42.08
38558;BME280;24333;42.626;23.308;2022-08-19T15:56:13;91932.66;;;29.29;41.78
38558;BME280;24333;42.626;23.308;2022-08-19T15:58:39;91923.38;;;29.06;41.91
38558;BME280;24333;42.626;23.308;2022-08-19T16:01:23;91925.59;;;28.91;42.11
38558;BME280;24333;42.626;23.308;2022-08-19T16:04:07;91920.31;;;28.72;42.23
38558;BME280;24333;42.626;23.308;2022-08-19T16:53:30;91923.88;;;26.99;45.96
38558;BME280;24333;42.626;23.308;2022-08-19T16:55:56;91918.44;;;26.90;45.97
38558;BME280;24333;42.626;23.308;2022-08-19T16:58:23;91933.69;;;26.89;45.85
38558;BME280;24333;42.626;23.308;2022-08-19T17:00:51;91927.13;;;26.77;46.71
38558;BME280;24333;42.626;23.308;2022-08-19T17:03:17;91926.84;;;26.75;48.31
38558;BME280;24333;42.626;23.308;2022-08-19T17:06:13;91937.66;;;26.67;47.99
38558;BME280;24333;42.626;23.308;2022-08-19T17:25:25;91966.09;;;26.05;50.19
38558;BME280;24333;42.626;23.308;2022-08-19T17:27:51;91962.16;;;25.97;49.12
38558;BME280;24333;42.626;23.308;2022-08-19T17:30:17;91955.59;;;25.85;50.10
38558;BME280;24333;42.626;23.308;2022-08-19T17:32:43;91968.09;;;25.75;49.85
38558;BME280;24333;42.626;23.308;2022-08-19T18:11:26;91975.53;;;25.05;51.67
38558;BME280;24333;42.626;23.308;2022-08-19T18:13:51;91968.03;;;24.96;51.01
38558;BME280;24333;42.626;23.308;2022-08-19T18:16:17;91980.22;;;24.98;50.62
38558;BME280;24333;42.626;23.308;2022-08-19T18:18:45;91979.75;;;25.00;51.33
38558;BME280;24333;42.626;23.308;2022-08-19T18:21:10;91977.63;;;24.95;51.04
38558;BME280;24333;42.626;23.308;2022-08-19T18:23:36;91988.28;;;24.96;50.83
38558;BME280;24333;42.626;23.308;2022-08-19T18:29:24;91986.44;;;24.93;50.52
38558;BME280;24333;42.626;23.308;2022-08-19T18:31:49;91999.88;;;25.04;50.36
38558;BME280;24333;42.626;23.308;2022-08-19T22:30:05;91975.06;;;24.39;52.01
38558;BME280;24333;42.626;23.308;2022-08-19T22:32:34;91980.16;;;24.40;52.07
38558;BME280;24333;42.626;23.308;2022-08-19T22:35:10;91984.59;;;24.47;52.10
38558;BME280;24333;42.626;23.308;2022-08-19T22:37:40;91968.56;;;24.33;52.05
38558;BME280;24333;42.626;23.308;2022-08-19T22:40:14;91979.81;;;24.48;51.99
38558;BME280;24333;42.626;23.308;2022-08-19T22:42:41;91974.41;;;24.44;51.60
38558;BME280;24333;42.626;23.308;2022-08-19T22:45:10;91964.50;;;24.43;52.08
38558;BME280;24333;42.626;23.308;2022-08-19T22:47:37;91962.06;;;24.36;52.40
38558;BME280;24333;42.626;23.308;2022-08-19T22:50:05;91953.41;;;24.34;52.40
38558;BME280;24333;42.626;23.308;2022-08-19T22:52:31;91967.00;;;24.41;52.84
